createdAt,value
2023-04-21T00:01:41.363Z,14.57
2023-04-21T00:04:09.925Z,11.70
2023-04-21T00:06:37.977Z,10.73
2023-04-21T00:09:07.389Z,10.60
2023-04-21T00:11:35.589Z,13.73
2023-04-21T00:14:03.863Z,11.40
2023-04-21T00:16:31.935Z,10.55
2023-04-21T00:19:00.081Z,11.88
2023-04-21T00:21:28.013Z,8.95
2023-04-21T00:23:55.986Z,10.00
2023-04-21T00:26:25.547Z,9.13
2023-04-21T00:28:53.860Z,9.95
2023-04-21T00:31:21.980Z,8.70
2023-04-21T00:33:50.001Z,9.23
2023-04-21T00:36:17.942Z,8.32
2023-04-21T00:38:45.876Z,10.60
2023-04-21T00:41:15.766Z,8.45
2023-04-21T00:44:02.866Z,9.73
2023-04-21T00:46:33.068Z,10.70
2023-04-21T00:49:04.326Z,9.48
2023-04-21T00:51:34.555Z,10.57
2023-04-21T00:54:05.147Z,9.25
2023-04-21T00:56:34.993Z,10.90
2023-04-21T00:59:05.088Z,9.38
2023-04-21T01:01:34.300Z,11.48
2023-04-21T01:04:03.528Z,11.55
2023-04-21T01:06:34.122Z,9.65
2023-04-21T01:09:02.428Z,9.93
2023-04-21T01:11:30.326Z,9.52
2023-04-21T01:13:58.370Z,8.98
2023-04-21T01:16:28.118Z,8.73
2023-04-21T01:18:56.274Z,10.02
2023-04-21T01:21:24.702Z,8.18
2023-04-21T01:23:54.314Z,7.40
2023-04-21T01:26:23.638Z,7.55
2023-04-21T01:28:51.643Z,8.63
2023-04-21T01:31:21.155Z,9.68
2023-04-21T01:33:49.235Z,7.05
2023-04-21T01:36:17.705Z,11.50
2023-04-21T01:38:45.812Z,5.68
2023-04-21T01:41:15.230Z,8.63
2023-04-21T01:43:43.167Z,6.15
2023-04-21T01:46:11.340Z,5.50
2023-04-21T01:48:39.328Z,5.13
2023-04-21T01:51:07.446Z,7.63
2023-04-21T01:53:35.449Z,4.35
2023-04-21T01:56:03.472Z,4.60
2023-04-21T01:58:33.678Z,7.55
2023-04-21T02:01:01.687Z,7.63
2023-04-21T02:03:29.726Z,6.38
2023-04-21T02:05:57.842Z,8.20
2023-04-21T02:08:25.805Z,5.65
2023-04-21T02:10:53.734Z,8.90
2023-04-21T02:13:21.676Z,7.90
2023-04-21T02:15:59.548Z,6.60
2023-04-21T02:18:34.554Z,8.38
2023-04-21T02:21:03.063Z,7.38
2023-04-21T02:23:31.004Z,7.70
2023-04-21T02:25:58.922Z,6.80
2023-04-21T02:28:26.826Z,8.45
2023-04-21T02:30:56.251Z,8.25
2023-04-21T02:33:24.703Z,12.00
2023-04-21T02:35:52.622Z,6.30
2023-04-21T02:38:20.610Z,6.68
2023-04-21T02:40:48.759Z,5.97
2023-04-21T02:43:16.733Z,5.90
2023-04-21T02:45:44.874Z,6.60
2023-04-21T02:48:14.934Z,7.68
2023-04-21T02:50:44.425Z,6.38
2023-04-21T02:53:12.388Z,6.22
2023-04-21T02:55:40.867Z,7.15
2023-04-21T02:58:10.304Z,4.88
2023-04-21T03:00:38.395Z,6.93
2023-04-21T03:03:06.801Z,6.20
2023-04-21T03:05:36.236Z,5.60
2023-04-21T03:08:04.200Z,6.18
2023-04-21T03:10:32.177Z,5.55
2023-04-21T03:13:00.108Z,7.85
2023-04-21T03:15:28.276Z,8.48
2023-04-21T03:17:56.342Z,8.13
2023-04-21T03:20:26.387Z,6.40
2023-04-21T03:22:55.935Z,6.85
2023-04-21T03:25:24.141Z,5.15
2023-04-21T03:27:52.158Z,7.10
2023-04-21T03:30:20.947Z,7.18
2023-04-21T03:32:48.988Z,6.18
2023-04-21T03:35:17.257Z,5.38
2023-04-21T03:37:45.278Z,5.22
2023-04-21T03:40:14.706Z,5.50
2023-04-21T03:42:43.572Z,6.07
2023-04-21T03:45:11.747Z,5.45
2023-04-21T03:47:39.692Z,4.75
2023-04-21T03:50:08.730Z,5.50
2023-04-21T03:52:36.632Z,5.85
2023-04-21T03:55:05.171Z,6.18
2023-04-21T03:57:34.433Z,6.63
2023-04-21T04:00:02.366Z,5.72
2023-04-21T04:02:40.750Z,7.85
2023-04-21T04:05:09.714Z,8.25
2023-04-21T04:07:37.837Z,8.60
2023-04-21T04:10:06.115Z,7.97
2023-04-21T04:12:35.531Z,7.82
2023-04-21T04:15:03.697Z,7.45
2023-04-21T04:17:31.601Z,9.07
2023-04-21T04:19:59.596Z,10.93
2023-04-21T04:22:27.528Z,10.52
2023-04-21T04:24:55.691Z,13.45
2023-04-21T04:27:23.596Z,12.00
2023-04-21T04:29:53.164Z,13.57
2023-04-21T04:32:21.822Z,13.48
2023-04-21T04:34:49.789Z,15.70
2023-04-21T04:37:17.726Z,13.95
2023-04-21T04:39:45.746Z,16.73
2023-04-21T04:42:14.605Z,14.73
2023-04-21T04:44:42.594Z,16.55
2023-04-21T04:47:12.622Z,17.30
2023-04-21T04:49:40.577Z,17.77
2023-04-21T04:52:08.514Z,16.83
2023-04-21T04:54:36.436Z,18.02
2023-04-21T04:57:04.487Z,17.77
2023-04-21T04:59:32.415Z,22.63
2023-04-21T05:02:00.578Z,19.60
2023-04-21T05:04:30.172Z,16.90
2023-04-21T05:06:58.214Z,14.63
2023-04-21T05:09:26.463Z,12.75
2023-04-21T05:11:54.465Z,12.73
2023-04-21T05:14:22.486Z,17.48
2023-04-21T05:16:50.472Z,19.70
2023-04-21T05:19:18.915Z,15.15
2023-04-21T05:21:48.301Z,15.63
2023-04-21T05:24:16.239Z,12.40
2023-04-21T05:26:44.104Z,16.35
2023-04-21T05:29:12.034Z,18.38
2023-04-21T05:31:40.097Z,16.95
2023-04-21T05:34:08.018Z,15.38
2023-04-21T05:36:35.956Z,15.98
2023-04-21T05:39:06.375Z,16.98
2023-04-21T05:41:34.288Z,17.63
2023-04-21T05:44:02.313Z,14.27
2023-04-21T05:46:30.954Z,15.77
2023-04-21T05:48:58.909Z,14.45
2023-04-21T05:51:27.142Z,16.95
2023-04-21T05:53:55.224Z,16.50
2023-04-21T05:56:24.509Z,16.60
2023-04-21T05:58:52.559Z,15.73
2023-04-21T06:01:20.453Z,18.08
2023-04-21T06:03:50.412Z,14.77
2023-04-21T06:06:19.183Z,15.43
2023-04-21T06:08:47.132Z,13.60
2023-04-21T06:11:15.100Z,14.95
2023-04-21T06:13:44.793Z,27.60
2023-04-21T06:16:12.776Z,17.95
2023-04-21T06:18:40.771Z,52.10
2023-04-21T06:21:08.831Z,48.70
2023-04-21T06:23:36.719Z,49.40
2023-04-21T06:26:06.824Z,17.67
2023-04-21T06:28:36.137Z,18.02
2023-04-21T06:31:08.862Z,16.50
2023-04-21T06:33:37.468Z,24.05
2023-04-21T06:36:06.171Z,18.35
2023-04-21T06:38:34.309Z,47.33
2023-04-21T06:41:02.519Z,20.25
2023-04-21T06:43:30.537Z,20.42
2023-04-21T06:45:59.146Z,18.70
2023-04-21T06:48:29.949Z,19.30
2023-04-21T06:50:58.302Z,17.05
2023-04-21T06:53:26.491Z,19.50
2023-04-21T06:55:54.501Z,17.90
2023-04-21T06:58:22.419Z,17.77
2023-04-21T07:00:50.346Z,18.52
2023-04-21T07:03:18.345Z,17.15
2023-04-21T07:05:47.751Z,18.08
2023-04-21T07:08:15.756Z,21.88
2023-04-21T07:10:43.660Z,22.38
2023-04-21T07:13:11.608Z,17.48
2023-04-21T07:15:39.591Z,19.50
2023-04-21T07:18:07.596Z,18.20
2023-04-21T07:20:35.628Z,22.48
2023-04-21T07:23:04.960Z,21.60
2023-04-21T07:25:32.884Z,22.27
2023-04-21T07:28:00.778Z,19.13
2023-04-21T07:30:29.434Z,20.17
2023-04-21T07:32:57.838Z,18.65
2023-04-21T07:35:25.840Z,18.33
2023-04-21T07:37:53.846Z,27.98
2023-04-21T07:40:23.146Z,26.13
2023-04-21T07:42:51.139Z,21.55
2023-04-21T07:45:19.239Z,14.65
2023-04-21T07:47:47.325Z,19.38
2023-04-21T07:50:15.294Z,18.88
2023-04-21T07:52:43.211Z,18.85
2023-04-21T07:55:11.374Z,15.75
2023-04-21T07:57:40.699Z,15.32
2023-04-21T08:00:10.440Z,16.70
2023-04-21T08:02:41.837Z,16.20
2023-04-21T08:05:10.365Z,19.02
2023-04-21T08:07:38.959Z,16.45
2023-04-21T08:10:08.244Z,11.63
2023-04-21T08:12:36.169Z,8.85
2023-04-21T08:15:08.463Z,8.73
2023-04-21T08:17:36.654Z,7.55
2023-04-21T08:20:05.356Z,8.88
2023-04-21T08:22:33.476Z,5.78
2023-04-21T08:25:01.491Z,7.97
2023-04-21T08:27:29.656Z,7.72
2023-04-21T08:29:57.714Z,8.63
2023-04-21T08:32:27.538Z,8.40
2023-04-21T08:34:56.109Z,10.02
2023-04-21T08:37:24.216Z,9.63
2023-04-21T08:39:53.593Z,8.93
2023-04-21T08:42:21.892Z,10.35
2023-04-21T08:44:49.959Z,13.55
2023-04-21T08:47:18.193Z,13.85
2023-04-21T08:49:50.919Z,11.90
2023-04-21T08:52:19.470Z,10.65
2023-04-21T08:54:51.832Z,10.07
2023-04-21T08:57:19.932Z,13.30
2023-04-21T08:59:47.918Z,9.68
2023-04-21T09:02:17.616Z,9.38
2023-04-21T09:04:48.912Z,10.02
2023-04-21T09:07:33.263Z,10.68
2023-04-21T09:10:01.697Z,8.57
2023-04-21T09:12:30.939Z,11.63
2023-04-21T09:14:59.250Z,9.25
2023-04-21T09:17:33.481Z,11.27
2023-04-21T09:20:15.561Z,9.68
2023-04-21T09:22:43.668Z,10.38
2023-04-21T09:25:11.690Z,11.35
2023-04-21T09:27:39.753Z,10.45
2023-04-21T09:30:09.412Z,9.25
2023-04-21T09:32:39.167Z,11.20
2023-04-21T09:35:11.204Z,13.88
2023-04-21T09:37:39.430Z,11.18
2023-04-21T09:40:08.394Z,10.38
2023-04-21T09:42:39.447Z,11.10
2023-04-21T09:45:32.413Z,10.95
2023-04-21T09:48:00.819Z,8.10
2023-04-21T09:53:06.976Z,10.13
2023-04-21T09:55:36.216Z,10.73
2023-04-21T09:58:07.026Z,15.43
2023-04-21T10:00:39.450Z,12.10
2023-04-21T10:03:11.541Z,11.20
2023-04-21T10:05:42.704Z,11.07
2023-04-21T10:08:12.722Z,7.30
2023-04-21T10:10:41.115Z,8.88
2023-04-21T10:13:14.742Z,8.15
2023-04-21T10:15:43.510Z,7.78
2023-04-21T10:18:19.222Z,10.60
2023-04-21T10:20:56.452Z,14.32
2023-04-21T10:23:31.345Z,10.82
2023-04-21T10:26:04.463Z,12.00
2023-04-21T10:28:49.543Z,11.93
2023-04-21T10:31:23.183Z,12.60
2023-04-21T10:34:20.337Z,12.25
2023-04-21T10:37:13.121Z,10.57
2023-04-21T10:39:53.360Z,11.60
2023-04-21T10:42:27.449Z,10.82
2023-04-21T10:45:04.067Z,11.88
2023-04-21T10:47:38.013Z,11.05
2023-04-21T10:50:14.825Z,9.30
2023-04-21T10:52:48.183Z,10.32
2023-04-21T10:55:17.180Z,9.05
2023-04-21T10:57:46.638Z,9.73
2023-04-21T11:00:20.376Z,11.43
2023-04-21T11:03:07.175Z,9.43
2023-04-21T11:05:38.719Z,13.80
2023-04-21T11:08:11.406Z,9.38
2023-04-21T11:10:54.625Z,11.55
2023-04-21T11:13:23.937Z,11.05
2023-04-21T11:16:00.542Z,11.07
2023-04-21T11:18:37.729Z,12.02
2023-04-21T11:21:10.469Z,9.88
2023-04-21T11:23:43.176Z,11.15
2023-04-21T11:26:11.195Z,10.45
2023-04-21T11:28:41.568Z,10.93
2023-04-21T11:31:09.711Z,11.27
2023-04-21T11:33:38.166Z,8.50
2023-04-21T11:36:07.528Z,7.45
2023-04-21T11:38:41.544Z,7.25
2023-04-21T11:41:10.965Z,7.85
2023-04-21T11:43:39.554Z,6.60
2023-04-21T11:46:25.068Z,6.72
2023-04-21T11:49:04.477Z,8.77
2023-04-21T11:51:37.364Z,7.90
2023-04-21T11:54:09.149Z,10.23
2023-04-21T11:56:38.627Z,9.77
2023-04-21T11:59:09.837Z,10.90
2023-04-21T12:01:44.606Z,12.38
2023-04-21T12:04:16.197Z,10.88
2023-04-21T12:06:45.345Z,14.02
2023-04-21T12:09:21.000Z,12.98
2023-04-21T12:11:50.332Z,12.65
2023-04-21T12:14:19.563Z,11.15
2023-04-21T12:16:49.924Z,10.10
2023-04-21T12:19:26.485Z,9.95
2023-04-21T12:21:55.793Z,9.38
2023-04-21T12:24:25.477Z,12.48
2023-04-21T12:26:53.623Z,11.85
2023-04-21T12:29:21.608Z,9.35
2023-04-21T12:31:49.605Z,10.18
2023-04-21T12:34:17.693Z,10.32
2023-04-21T12:36:45.784Z,12.77
2023-04-21T12:39:14.252Z,10.32
2023-04-21T12:41:43.571Z,11.63
2023-04-21T12:44:11.638Z,13.38
2023-04-21T12:46:39.679Z,14.00
2023-04-21T12:49:10.029Z,11.35
2023-04-21T12:51:38.239Z,11.48
2023-04-21T12:54:06.442Z,11.43
2023-04-21T12:56:34.517Z,10.73
2023-04-21T12:59:04.264Z,10.68
2023-04-21T13:01:32.290Z,10.18
2023-04-21T13:04:01.238Z,9.00
2023-04-21T13:06:29.409Z,6.55
2023-04-21T13:08:57.433Z,9.40
2023-04-21T13:11:25.554Z,8.75
2023-04-21T13:13:53.521Z,6.60
2023-04-21T13:16:22.869Z,11.85
2023-04-21T13:18:50.945Z,5.88
2023-04-21T13:21:18.914Z,5.22
2023-04-21T13:23:47.120Z,4.20
2023-04-21T13:26:16.017Z,6.28
2023-04-21T13:28:44.140Z,4.78
2023-04-21T13:31:12.223Z,4.88
2023-04-21T13:33:42.193Z,4.95
2023-04-21T13:36:12.789Z,6.10
2023-04-21T13:38:41.554Z,3.72
2023-04-21T13:41:09.604Z,4.90
2023-04-21T13:43:37.605Z,3.60
2023-04-21T13:46:05.687Z,6.03
2023-04-21T13:48:33.761Z,5.15
2023-04-21T13:51:03.314Z,6.00
2023-04-21T13:53:31.303Z,4.60
2023-04-21T13:55:59.494Z,7.80
2023-04-21T13:58:27.878Z,5.57
2023-04-21T14:00:56.052Z,7.55
2023-04-21T14:03:24.361Z,6.55
2023-04-21T14:05:52.501Z,3.70
2023-04-21T14:08:22.086Z,5.10
2023-04-21T14:10:50.133Z,4.07
2023-04-21T14:15:51.663Z,5.55
2023-04-21T14:18:19.878Z,4.95
2023-04-21T14:20:48.113Z,3.58
2023-04-21T14:23:16.413Z,4.53
2023-04-21T14:25:45.746Z,3.15
2023-04-21T14:28:13.734Z,6.43
2023-04-21T14:30:43.119Z,8.38
2023-04-21T14:33:11.447Z,5.20
2023-04-21T14:35:39.567Z,4.97
2023-04-21T14:38:08.439Z,6.43
2023-04-21T14:40:36.488Z,7.82
2023-04-21T14:43:06.003Z,10.38
2023-04-21T14:45:34.132Z,4.15
2023-04-21T14:48:02.395Z,7.90
2023-04-21T14:50:30.800Z,5.43
2023-04-21T14:52:58.725Z,8.95
2023-04-21T14:55:26.780Z,4.75
2023-04-21T14:57:54.742Z,7.50
2023-04-21T15:00:24.302Z,5.95
2023-04-21T15:02:52.938Z,6.00
2023-04-21T15:05:21.601Z,7.15
2023-04-21T15:07:49.597Z,10.93
2023-04-21T15:10:17.866Z,7.68
2023-04-21T15:12:46.188Z,6.22
2023-04-21T15:15:14.158Z,5.10
2023-04-21T15:17:43.510Z,5.40
2023-04-21T15:20:12.385Z,7.05
2023-04-21T15:22:40.439Z,8.70
2023-04-21T15:25:09.155Z,6.30
2023-04-21T15:27:37.792Z,8.43
2023-04-21T15:30:06.608Z,6.78
2023-04-21T15:32:34.810Z,8.00
2023-04-21T15:35:04.300Z,7.70
2023-04-21T15:37:32.355Z,7.95
2023-04-21T15:40:00.386Z,6.65
2023-04-21T15:42:28.609Z,6.43
2023-04-21T15:44:57.352Z,6.53
2023-04-21T15:47:25.436Z,9.27
2023-04-21T15:49:53.405Z,6.97
2023-04-21T15:52:22.970Z,8.18
2023-04-21T15:54:51.264Z,7.40
2023-04-21T15:57:19.331Z,6.78
2023-04-21T15:59:47.317Z,6.65
2023-04-21T16:02:15.745Z,8.05
2023-04-21T16:04:44.441Z,7.72
2023-04-21T16:07:13.016Z,8.40
2023-04-21T16:09:42.439Z,12.90
2023-04-21T16:12:10.559Z,6.20
2023-04-21T16:14:53.621Z,7.68
2023-04-21T16:17:26.743Z,7.55
2023-04-21T16:19:54.893Z,6.70
2023-04-21T16:22:22.832Z,6.88
2023-04-21T16:24:53.199Z,7.30
2023-04-21T16:27:21.475Z,9.40
2023-04-21T16:29:50.275Z,8.05
2023-04-21T16:32:18.353Z,8.10
2023-04-21T16:34:46.361Z,7.30
2023-04-21T16:37:14.439Z,6.72
2023-04-21T16:39:42.398Z,8.35
2023-04-21T16:42:11.746Z,9.13
2023-04-21T16:44:40.165Z,12.20
2023-04-21T16:47:08.848Z,4.15
2023-04-21T16:49:36.856Z,8.80
2023-04-21T16:52:04.977Z,5.18
2023-04-21T16:54:32.943Z,5.00
2023-04-21T16:57:02.375Z,7.47
2023-04-21T16:59:33.058Z,9.75
2023-04-21T17:02:01.394Z,6.22
2023-04-21T17:04:29.479Z,4.65
2023-04-21T17:06:57.502Z,6.65
2023-04-21T17:09:25.503Z,4.97
2023-04-21T17:11:53.488Z,5.00
2023-04-21T17:14:21.473Z,8.95
2023-04-21T17:16:51.055Z,5.90
2023-04-21T17:19:19.339Z,16.30
2023-04-21T17:21:47.312Z,9.05
2023-04-21T17:24:15.235Z,19.85
2023-04-21T17:26:43.374Z,7.15
2023-04-21T17:29:11.362Z,12.02
2023-04-21T17:31:39.349Z,14.10
2023-04-21T17:34:08.705Z,7.10
2023-04-21T17:36:36.850Z,7.07
2023-04-21T17:39:05.422Z,4.82
2023-04-21T17:41:33.677Z,4.72
2023-04-21T17:44:01.593Z,7.32
2023-04-21T17:46:29.582Z,10.18
2023-04-21T17:48:57.543Z,9.85
2023-04-21T17:51:28.781Z,8.38
2023-04-21T17:53:56.760Z,6.22
2023-04-21T17:56:24.872Z,10.15
2023-04-21T17:58:52.783Z,10.27
2023-04-21T18:01:21.003Z,7.68
2023-04-21T18:03:49.129Z,10.82
2023-04-21T18:06:17.313Z,8.48
2023-04-21T18:08:46.686Z,10.13
2023-04-21T18:11:14.708Z,10.77
2023-04-21T18:13:42.642Z,6.50
2023-04-21T18:16:10.607Z,6.63
2023-04-21T18:18:38.699Z,5.97
2023-04-21T18:21:06.890Z,9.05
2023-04-21T18:23:35.984Z,7.07
2023-04-21T18:26:05.524Z,5.63
2023-04-21T18:28:33.485Z,9.05
2023-04-21T18:31:01.745Z,8.25
2023-04-21T18:33:30.137Z,10.50
2023-04-21T18:35:58.088Z,5.95
2023-04-21T18:38:26.100Z,7.65
2023-04-21T18:40:54.027Z,8.80
2023-04-21T18:43:25.507Z,8.50
2023-04-21T18:45:53.499Z,5.35
2023-04-21T18:48:21.428Z,6.32
2023-04-21T18:50:49.655Z,6.38
2023-04-21T18:53:17.606Z,5.18
2023-04-21T18:55:45.710Z,5.75
2023-04-21T18:58:13.746Z,5.13
2023-04-21T19:00:43.162Z,5.70
2023-04-21T19:03:11.703Z,6.68
2023-04-21T19:05:40.678Z,5.57
2023-04-21T19:08:10.311Z,7.28
2023-04-21T19:10:38.948Z,9.73
2023-04-21T19:13:06.963Z,8.82
2023-04-21T19:15:35.126Z,9.52
2023-04-21T19:18:04.675Z,9.60
2023-04-21T19:20:32.943Z,7.60
2023-04-21T19:23:03.563Z,6.68
2023-04-21T19:25:31.944Z,11.07
2023-04-21T19:28:01.230Z,10.60
2023-04-21T19:30:29.293Z,7.57
2023-04-21T19:32:57.287Z,10.63
2023-04-21T19:35:26.851Z,13.07
2023-04-21T19:37:54.806Z,11.00
2023-04-21T19:40:22.821Z,11.05
2023-04-21T19:42:50.864Z,11.32
2023-04-21T19:45:18.817Z,12.40
2023-04-21T19:47:47.700Z,10.93
2023-04-21T19:50:16.021Z,14.48
2023-04-21T19:52:46.573Z,9.82
2023-04-21T19:55:14.807Z,10.15
2023-04-21T19:57:42.765Z,8.48
2023-04-21T20:00:12.576Z,9.68
2023-04-21T20:02:40.672Z,11.68
2023-04-21T20:05:10.077Z,8.27
2023-04-21T20:07:38.570Z,7.13
2023-04-21T20:10:09.335Z,11.48
2023-04-21T20:12:37.367Z,13.88
2023-04-21T20:15:06.210Z,12.00
2023-04-21T20:17:34.314Z,9.38
2023-04-21T20:20:05.237Z,9.50
2023-04-21T20:22:33.231Z,11.65
2023-04-21T20:25:01.145Z,9.63
2023-04-21T20:27:30.764Z,11.25
2023-04-21T20:29:58.870Z,8.82
2023-04-21T20:32:27.146Z,9.27
2023-04-21T20:34:55.205Z,11.15
2023-04-21T20:37:23.422Z,8.95
2023-04-21T20:39:51.385Z,12.07
2023-04-21T20:42:20.137Z,10.27
2023-04-21T20:44:49.464Z,9.30
2023-04-21T20:47:17.582Z,11.70
2023-04-21T20:49:47.383Z,8.52
2023-04-21T20:52:16.170Z,11.35
2023-04-21T20:54:44.325Z,8.75
2023-04-21T20:57:12.654Z,9.93
2023-04-21T20:59:41.010Z,9.98
2023-04-21T21:02:10.869Z,8.07
2023-04-21T21:04:38.956Z,10.43
2023-04-21T21:07:07.063Z,12.45
2023-04-21T21:09:35.193Z,10.40
2023-04-21T21:12:03.640Z,12.05
2023-04-21T21:14:31.630Z,12.43
2023-04-21T21:16:59.850Z,13.73
2023-04-21T21:19:29.279Z,12.57
2023-04-21T21:21:57.460Z,10.20
2023-04-21T21:24:26.458Z,8.40
2023-04-21T21:26:54.489Z,9.75
2023-04-21T21:29:22.426Z,8.73
2023-04-21T21:31:50.402Z,8.27
2023-04-21T21:34:18.456Z,10.05
2023-04-21T21:36:47.720Z,8.35
2023-04-21T21:39:15.808Z,8.10
2023-04-21T21:41:43.719Z,10.07
2023-04-21T21:44:11.662Z,7.78
2023-04-21T21:46:39.892Z,8.00
2023-04-21T21:49:08.462Z,9.90
2023-04-21T21:51:36.421Z,12.07
2023-04-21T21:54:06.598Z,11.63
2023-04-21T21:56:34.689Z,13.27
2023-04-21T21:59:02.609Z,11.10
2023-04-21T22:01:30.599Z,9.98
2023-04-21T22:03:58.670Z,18.45
2023-04-21T22:06:28.995Z,20.13
2023-04-21T22:08:57.022Z,14.07
2023-04-21T22:11:26.398Z,9.32
2023-04-21T22:13:54.519Z,7.68
2023-04-21T22:16:22.444Z,8.75
2023-04-21T22:18:50.906Z,6.72
2023-04-21T22:21:20.522Z,6.65
2023-04-21T22:23:48.543Z,7.40
2023-04-21T22:26:16.492Z,7.03
2023-04-21T22:28:49.848Z,11.68
2023-04-21T22:31:18.192Z,5.18
2023-04-21T22:33:46.197Z,6.10
2023-04-21T22:36:14.177Z,10.18
2023-04-21T22:38:43.615Z,9.05
2023-04-21T22:41:11.590Z,10.82
2023-04-21T22:43:39.797Z,13.20
2023-04-21T22:46:09.274Z,10.43
2023-04-21T22:48:38.351Z,8.65
2023-04-21T22:51:07.260Z,12.00
2023-04-21T22:53:35.593Z,7.35
2023-04-21T22:56:04.475Z,9.63
2023-04-21T22:58:32.441Z,11.05
2023-04-21T23:01:00.723Z,8.60
2023-04-21T23:03:31.276Z,10.02
2023-04-21T23:05:59.452Z,7.70
2023-04-21T23:08:27.419Z,5.60
2023-04-21T23:10:55.590Z,6.40
2023-04-21T23:13:23.663Z,7.47
2023-04-21T23:15:51.632Z,7.57
2023-04-21T23:18:19.538Z,9.70
2023-04-21T23:20:48.904Z,6.60
2023-04-21T23:23:16.801Z,7.10
2023-04-21T23:25:44.724Z,12.82
2023-04-21T23:28:12.723Z,9.80
2023-04-21T23:30:40.870Z,13.50
2023-04-21T23:33:09.092Z,12.48
2023-04-21T23:35:37.092Z,21.58
2023-04-21T23:38:06.381Z,21.73
2023-04-21T23:40:34.335Z,26.67
2023-04-21T23:43:02.294Z,20.73
2023-04-21T23:45:30.228Z,22.23
2023-04-21T23:47:58.196Z,22.90
2023-04-21T23:50:26.195Z,16.33
2023-04-21T23:52:54.136Z,17.67
2023-04-21T23:55:23.460Z,18.20
2023-04-21T23:57:51.409Z,17.75
